Terminal Aerodrome Forecast
Issued by NWS Glasgow, MT

Current Version | Previous Version | Text Only | Print | Product List | Glossary On
Versions: 1 2 3 4 5 6 7 8 9 10 11 12 13 14
000
FTUS45 KGGW 010500
TAFGGW
TAF
KGGW 010520Z 0106/0206 06009KT P6SM SCT080
     FM011100 VRB04KT P6SM BCFG BKN110
     FM011800 27008KT P6SM SCT080=

USA.gov is the U.S. government's official web portal to all federal, state and local government web resources and services.